CYTZ/YTZ METAR and TAF weather

Enter ICAO airport designator
Station Type Date Time Source
CYTZ METAR 2017/04/25 04:00 UTC NOAA

CYTZ 250400Z AUTO 07015KT 9SM CLR 07/03 A3007 RMK SLP188


Station Type Date Time Source
CYTZ Decoded METAR 2017/04/25 04:00 UTC NOAA

Toronto Island Airport Automated Reporting Station, Canada (CYTZ) 43-38N 079-24W
Apr 25, 2017 - 12:00 AM EDT / 2017.04.25 0400 UTC
Wind: from the ENE (070 degrees) at 17 MPH (15 KT):0
Visibility: 9 mile(s):0
Sky conditions: clear
Temperature: 44 F (7 C)
Dew Point: 37 F (3 C)
Relative Humidity: 75%
Pressure (altimeter): 30.07 in. Hg (1018 hPa)
ob: CYTZ 250400Z AUTO 07015KT 9SM CLR 07/03 A3007 RMK SLP188
cycle: 4

Station Type Date Time Source
CYTZ TAF 2017/04/25 02:43 UTC NOAA

TAF CYTZ 250138Z 2502/2602 07015KT P6SM SCT250
FM251100 07015KT P6SM SCT030 BKN070
FM251400 08013G23KT P6SM -SHRA SCT008 OVC020
FM251800 07015G25KT 3SM -SHRA BR OVC006 PROB30 2518/2523 11/2SM -SHRA BR OVC004
FM252300 07015KT 5SM BR BKN008 OVC012
RMK FCST BASED ON AUTO OBS. NXT FCST BY 250800Z


Example: see airport list